Time;durP1;ratioP1;P1;durP2;ratioP2;P2;SDS_P1;SDS_P2;PMS_P1;PMS_P2;Temp;Humidity;BMP_temperature;BMP_pressure;BME280_temperature;BME280_humidity;BME280_pressure;Samples;Min_cycle;Max_cycle;Signal;HPM_P1;HPM_P2
2022/08/22 00:00:48;;;;;;;;;;;17.00;99.90;;;;;;5176544;27;19923;-71
2022/08/22 00:03:24;;;;;;;;;;;16.90;99.90;;;;;;5177310;27;20361;-71
2022/08/22 00:06:07;;;;;;;;;;;16.90;99.90;;;;;;5177559;27;19929;-68
2022/08/22 00:08:42;;;;;;;;;;;16.90;99.90;;;;;;5177320;27;19970;-72
2022/08/22 00:11:13;;;;;;;;;;;16.80;99.90;;;;;;5158645;27;19975;-72
2022/08/22 00:13:45;;;;;;;;;;;16.80;99.90;;;;;;5159142;27;20021;-68
2022/08/22 00:16:13;;;;;;;;;;;16.90;99.90;;;;;;5158665;27;20355;-68
2022/08/22 00:19:14;;;;;;;;;;;16.80;99.90;;;;;;5158911;27;19977;-68
2022/08/22 00:21:40;;;;;;;;;;;16.80;99.90;;;;;;5072158;28;19925;-68
2022/08/22 00:24:22;;;;;;;;;;;16.80;99.90;;;;;;5072038;28;19924;-68
2022/08/22 00:26:51;;;;;;;;;;;16.70;99.90;;;;;;5055310;28;20011;-69
2022/08/22 00:29:29;;;;;;;;;;;16.80;99.90;;;;;;5071693;28;19974;-69
2022/08/22 00:32:27;;;;;;;;;;;16.80;99.90;;;;;;5055664;28;19932;-70
2022/08/22 00:34:57;;;;;;;;;;;16.80;99.90;;;;;;5032021;28;19925;-68
2022/08/22 00:37:23;;;;;;;;;;;16.80;99.90;;;;;;5032213;28;19952;-68
2022/08/22 00:39:53;;;;;;;;;;;16.70;99.90;;;;;;5032008;28;20378;-71
2022/08/22 00:42:38;;;;;;;;;;;16.70;99.90;;;;;;5031960;28;19925;-69
2022/08/22 00:45:16;;;;;;;;;;;16.70;99.90;;;;;;5031972;28;20454;-68
2022/08/22 00:47:50;;;;;;;;;;;16.60;99.90;;;;;;5032125;28;20044;-71
2022/08/22 00:50:16;;;;;;;;;;;16.60;99.90;;;;;;5031691;28;19939;-69
2022/08/22 00:52:50;;;;;;;;;;;16.60;99.90;;;;;;5031682;28;19941;-68
2022/08/22 00:55:24;;;;;;;;;;;16.70;99.90;;;;;;5019454;28;20487;-72
2022/08/22 00:58:08;;;;;;;;;;;16.70;99.90;;;;;;5075202;28;19939;-68
2022/08/22 01:00:40;;;;;;;;;;;16.60;99.90;;;;;;5091781;28;19974;-70
2022/08/22 01:03:24;;;;;;;;;;;16.70;99.90;;;;;;5091773;28;20310;-70
2022/08/22 01:05:58;;;;;;;;;;;16.60;99.90;;;;;;5075177;28;19977;-68
2022/08/22 01:08:33;;;;;;;;;;;16.40;99.90;;;;;;5091666;28;20429;-68
2022/08/22 01:11:08;;;;;;;;;;;16.60;99.90;;;;;;5152049;27;20297;-68
2022/08/22 01:13:39;;;;;;;;;;;16.60;99.90;;;;;;5176297;27;19975;-69
2022/08/22 01:16:16;;;;;;;;;;;16.60;99.90;;;;;;5176077;27;19923;-67
2022/08/22 01:18:53;;;;;;;;;;;16.60;99.90;;;;;;5158090;27;20372;-69
2022/08/22 01:21:25;;;;;;;;;;;16.60;99.90;;;;;;5176352;27;20368;-68
2022/08/22 01:23:56;;;;;;;;;;;16.50;99.90;;;;;;5176398;27;20425;-68
2022/08/22 01:26:31;;;;;;;;;;;16.50;99.90;;;;;;5157734;27;19971;-68
2022/08/22 01:29:14;;;;;;;;;;;16.40;99.90;;;;;;5175978;27;19922;-69
2022/08/22 01:32:07;;;;;;;;;;;16.30;99.90;;;;;;5176142;27;20025;-69
2022/08/22 01:34:46;;;;;;;;;;;16.30;99.90;;;;;;5176236;27;19923;-68
2022/08/22 01:37:30;;;;;;;;;;;16.30;99.90;;;;;;5157697;27;20041;-70
2022/08/22 01:40:14;;;;;;;;;;;16.30;99.90;;;;;;5157648;27;20314;-69
2022/08/22 01:42:40;;;;;;;;;;;16.30;99.90;;;;;;5176060;27;19985;-68
2022/08/22 01:45:08;;;;;;;;;;;16.30;99.90;;;;;;5157591;27;19923;-68
2022/08/22 01:47:46;;;;;;;;;;;16.30;99.90;;;;;;5175930;27;19929;-68
2022/08/22 01:50:17;;;;;;;;;;;16.40;99.90;;;;;;5176194;27;20266;-68
2022/08/22 01:52:51;;;;;;;;;;;16.40;99.90;;;;;;5157560;27;19930;-68
2022/08/22 01:55:25;;;;;;;;;;;16.30;99.90;;;;;;5157666;27;19923;-68
2022/08/22 01:57:52;;;;;;;;;;;16.40;99.90;;;;;;5157413;27;19923;-68
2022/08/22 02:00:19;;;;;;;;;;;16.40;99.90;;;;;;5175751;27;19933;-68
2022/08/22 02:03:08;;;;;;;;;;;16.40;99.90;;;;;;5179802;27;19977;-72
2022/08/22 02:05:45;;;;;;;;;;;16.30;99.90;;;;;;5179950;27;20293;-68
2022/08/22 02:08:26;;;;;;;;;;;16.30;99.90;;;;;;5179764;27;20365;-70
2022/08/22 02:11:06;;;;;;;;;;;16.20;99.90;;;;;;5179675;27;19974;-69
2022/08/22 02:13:40;;;;;;;;;;;16.10;99.90;;;;;;5180078;27;19930;-68
2022/08/22 02:16:06;;;;;;;;;;;16.10;99.90;;;;;;5179661;27;19926;-69
2022/08/22 02:18:42;;;;;;;;;;;16.00;99.90;;;;;;5179609;27;19927;-70
2022/08/22 02:21:10;;;;;;;;;;;16.00;99.90;;;;;;5160826;27;19979;-68
2022/08/22 02:23:57;;;;;;;;;;;16.10;99.90;;;;;;5179787;27;20013;-68
2022/08/22 02:26:42;;;;;;;;;;;16.00;99.90;;;;;;5179501;27;19922;-68
2022/08/22 02:29:13;;;;;;;;;;;16.00;99.90;;;;;;5160810;27;19934;-69
2022/08/22 02:31:45;;;;;;;;;;;15.80;99.90;;;;;;5179255;27;20396;-68
2022/08/22 02:34:17;;;;;;;;;;;15.90;99.90;;;;;;5179401;27;19923;-68
2022/08/22 02:36:47;;;;;;;;;;;15.80;99.90;;;;;;5160993;27;19929;-71
2022/08/22 02:39:20;;;;;;;;;;;15.80;99.90;;;;;;5179240;27;19922;-68
2022/08/22 02:42:04;;;;;;;;;;;15.80;99.90;;;;;;5179293;27;19927;-68
2022/08/22 02:44:29;;;;;;;;;;;15.80;99.90;;;;;;5160568;27;19927;-67
2022/08/22 02:47:08;;;;;;;;;;;15.80;99.90;;;;;;5179311;27;20266;-68
2022/08/22 02:49:45;;;;;;;;;;;15.90;99.90;;;;;;5178951;27;19930;-68
2022/08/22 02:52:34;;;;;;;;;;;15.90;99.90;;;;;;5178912;27;19922;-72
2022/08/22 02:55:05;;;;;;;;;;;16.00;99.90;;;;;;5074098;28;19929;-68
2022/08/22 02:57:34;;;;;;;;;;;16.00;99.90;;;;;;5073804;28;20054;-68
2022/08/22 03:00:04;;;;;;;;;;;15.30;99.90;;;;;;5073774;28;19925;-68
2022/08/22 03:02:30;;;;;;;;;;;16.00;99.90;;;;;;5057337;28;19924;-68
2022/08/22 03:04:58;;;;;;;;;;;16.00;99.90;;;;;;5073730;28;20453;-67
2022/08/22 03:07:30;;;;;;;;;;;16.00;99.90;;;;;;5073636;28;19931;-69
2022/08/22 03:09:59;;;;;;;;;;;16.10;99.90;;;;;;5073587;28;19925;-67
2022/08/22 03:12:37;;;;;;;;;;;16.10;99.90;;;;;;5073424;28;19924;-68
2022/08/22 03:15:08;;;;;;;;;;;16.00;99.90;;;;;;5073544;28;20023;-67
2022/08/22 03:17:46;;;;;;;;;;;16.00;99.90;;;;;;5073453;28;20406;-68
2022/08/22 03:20:13;;;;;;;;;;;16.00;99.90;;;;;;5056542;28;19928;-66
2022/08/22 03:22:45;;;;;;;;;;;16.00;99.90;;;;;;5073298;28;19931;-68
2022/08/22 03:25:25;;;;;;;;;;;16.00;99.90;;;;;;5073108;28;20371;-68
2022/08/22 03:27:51;;;;;;;;;;;16.00;99.90;;;;;;5073251;28;20537;-68
2022/08/22 03:30:19;;;;;;;;;;;15.90;99.90;;;;;;5073147;28;20026;-68
2022/08/22 03:32:47;;;;;;;;;;;16.00;99.90;;;;;;5144174;27;19930;-68
2022/08/22 03:35:36;;;;;;;;;;;16.00;99.90;;;;;;5159892;27;20384;-71
2022/08/22 03:38:14;;;;;;;;;;;16.00;99.90;;;;;;5073387;28;19925;-68
2022/08/22 03:40:46;;;;;;;;;;;15.90;99.90;;;;;;5073001;28;20398;-68
2022/08/22 03:43:14;;;;;;;;;;;15.90;99.90;;;;;;5056388;28;19975;-70
2022/08/22 03:45:47;;;;;;;;;;;15.90;99.90;;;;;;5056491;28;19928;-69
2022/08/22 03:48:13;;;;;;;;;;;15.80;99.90;;;;;;5056399;28;19924;-68
2022/08/22 03:50:44;;;;;;;;;;;15.80;99.90;;;;;;5056430;28;20405;-68
2022/08/22 03:53:29;;;;;;;;;;;15.70;99.90;;;;;;5072679;28;20023;-68
2022/08/22 03:56:13;;;;;;;;;;;15.70;99.90;;;;;;5055963;28;19946;-68
2022/08/22 03:58:57;;;;;;;;;;;15.60;99.90;;;;;;5056034;28;19931;-71
2022/08/22 04:01:28;;;;;;;;;;;15.50;99.90;;;;;;5072566;28;20379;-67
2022/08/22 04:03:54;;;;;;;;;;;15.40;99.90;;;;;;5056123;28;19982;-70
2022/08/22 04:06:40;;;;;;;;;;;15.40;99.90;;;;;;5056087;28;19967;-70
2022/08/22 04:09:18;;;;;;;;;;;15.40;99.90;;;;;;5055929;28;20342;-68
2022/08/22 04:11:47;;;;;;;;;;;15.40;99.90;;;;;;5056076;28;19924;-69
2022/08/22 04:14:30;;;;;;;;;;;15.40;99.90;;;;;;5089572;27;19926;-69
2022/08/22 04:17:07;;;;;;;;;;;15.50;99.90;;;;;;5177132;27;19966;-67
2022/08/22 04:19:47;;;;;;;;;;;15.50;99.90;;;;;;5158991;27;19929;-72
2022/08/22 04:22:14;;;;;;;;;;;15.60;99.90;;;;;;5177258;27;19923;-68
2022/08/22 04:24:45;;;;;;;;;;;15.60;99.90;;;;;;5176551;27;19972;-68
2022/08/22 04:27:16;;;;;;;;;;;15.60;99.90;;;;;;5176943;27;19922;-69
2022/08/22 04:29:47;;;;;;;;;;;15.60;99.90;;;;;;5177041;27;20366;-68
2022/08/22 04:32:19;;;;;;;;;;;15.60;99.90;;;;;;5158515;27;19975;-68
2022/08/22 04:34:47;;;;;;;;;;;15.60;99.90;;;;;;5177070;27;19929;-68
2022/08/22 04:37:17;;;;;;;;;;;15.70;99.90;;;;;;5176904;27;20282;-68
2022/08/22 04:39:58;;;;;;;;;;;15.60;99.90;;;;;;5176812;27;19923;-69
2022/08/22 04:42:39;;;;;;;;;;;15.70;99.90;;;;;;5158427;27;19929;-68
2022/08/22 04:45:11;;;;;;;;;;;15.70;99.90;;;;;;5176832;27;20029;-71
2022/08/22 04:47:52;;;;;;;;;;;15.70;99.90;;;;;;5158480;27;19929;-66
2022/08/22 04:50:18;;;;;;;;;;;15.70;99.90;;;;;;5176602;27;20027;-68
2022/08/22 04:52:47;;;;;;;;;;;15.70;99.90;;;;;;5158381;27;19930;-69
2022/08/22 04:55:20;;;;;;;;;;;15.70;99.90;;;;;;5176771;27;20021;-68
2022/08/22 04:57:46;;;;;;;;;;;15.80;99.90;;;;;;5158395;27;19922;-68
2022/08/22 05:00:12;;;;;;;;;;;15.80;99.90;;;;;;5158214;27;19971;-70
2022/08/22 05:02:41;;;;;;;;;;;15.80;99.90;;;;;;5158161;27;19971;-69
2022/08/22 05:05:12;;;;;;;;;;;15.80;99.90;;;;;;5158017;27;19923;-68
2022/08/22 05:07:39;;;;;;;;;;;15.80;99.90;;;;;;5158028;27;19974;-67
2022/08/22 05:10:05;;;;;;;;;;;15.90;99.90;;;;;;5176462;27;19930;-68
2022/08/22 05:12:32;;;;;;;;;;;15.80;99.90;;;;;;5176495;27;19923;-72
2022/08/22 05:15:01;;;;;;;;;;;15.90;99.90;;;;;;5176203;27;19923;-68
2022/08/22 05:17:28;;;;;;;;;;;15.90;99.90;;;;;;5176268;27;19922;-70
2022/08/22 05:19:55;;;;;;;;;;;15.90;99.90;;;;;;5176167;27;19931;-72
2022/08/22 05:22:23;;;;;;;;;;;15.80;99.90;;;;;;5158112;27;19922;-68
2022/08/22 05:24:52;;;;;;;;;;;15.80;99.90;;;;;;5176248;27;20345;-69
2022/08/22 05:27:23;;;;;;;;;;;15.80;99.90;;;;;;5176350;27;20324;-68
2022/08/22 05:29:52;;;;;;;;;;;15.80;99.90;;;;;;5175840;27;20292;-70
2022/08/22 05:32:22;;;;;;;;;;;15.70;99.90;;;;;;5176055;27;19927;-68
2022/08/22 05:34:49;;;;;;;;;;;15.70;99.90;;;;;;5176304;27;19927;-70
2022/08/22 05:37:23;;;;;;;;;;;15.70;99.90;;;;;;5179439;27;20009;-69
2022/08/22 05:39:52;;;;;;;;;;;15.80;99.90;;;;;;5162008;27;19927;-68
2022/08/22 05:42:24;;;;;;;;;;;15.80;99.90;;;;;;5180392;27;19967;-70
2022/08/22 05:44:50;;;;;;;;;;;15.80;99.90;;;;;;5180092;27;19930;-68
2022/08/22 05:47:15;;;;;;;;;;;15.90;99.90;;;;;;5180106;27;19926;-71
2022/08/22 05:49:41;;;;;;;;;;;15.90;99.90;;;;;;5161738;27;19922;-69
2022/08/22 05:52:25;;;;;;;;;;;15.90;99.90;;;;;;5161708;27;19923;-68
2022/08/22 05:54:53;;;;;;;;;;;16.00;99.90;;;;;;5161683;27;20308;-67
2022/08/22 05:57:31;;;;;;;;;;;16.00;99.90;;;;;;5180099;27;20411;-69
2022/08/22 06:00:00;;;;;;;;;;;16.00;99.90;;;;;;5161717;27;20425;-68
2022/08/22 06:02:37;;;;;;;;;;;16.10;99.90;;;;;;5180131;27;19930;-68
2022/08/22 06:05:06;;;;;;;;;;;16.20;99.90;;;;;;5161472;27;19923;-68
2022/08/22 06:07:42;;;;;;;;;;;16.20;99.90;;;;;;5179849;27;20066;-69
2022/08/22 06:10:14;;;;;;;;;;;16.30;99.90;;;;;;5179683;27;19927;-71
2022/08/22 06:12:52;;;;;;;;;;;16.30;99.90;;;;;;5179928;27;19922;-68
2022/08/22 06:15:24;;;;;;;;;;;15.40;99.90;;;;;;5179768;27;20071;-68
2022/08/22 06:17:53;;;;;;;;;;;16.40;99.90;;;;;;5179623;27;20369;-68
2022/08/22 06:20:21;;;;;;;;;;;16.40;99.90;;;;;;5179612;27;20304;-68
2022/08/22 06:22:50;;;;;;;;;;;16.50;99.90;;;;;;5179454;27;19923;-68
2022/08/22 06:25:31;;;;;;;;;;;16.40;99.90;;;;;;5161133;27;19930;-69
2022/08/22 06:27:59;;;;;;;;;;;16.60;99.90;;;;;;5178387;27;20274;-67
2022/08/22 06:30:26;;;;;;;;;;;16.60;99.90;;;;;;5179374;27;19975;-68
2022/08/22 06:32:54;;;;;;;;;;;16.70;99.90;;;;;;5160270;27;20579;-71
2022/08/22 06:36:29;;;;;;;;;;;16.70;99.90;;;;;;5179089;27;20301;-68
2022/08/22 06:38:20;;;;;;;;;;;16.70;99.90;;;;;;5178947;27;20377;-67
2022/08/22 06:40:47;;;;;;;;;;;16.80;99.90;;;;;;5160779;27;19923;-68
2022/08/22 06:43:12;;;;;;;;;;;16.90;99.90;;;;;;5179172;27;19946;-67
2022/08/22 06:45:39;;;;;;;;;;;16.90;99.90;;;;;;5160629;27;19927;-69
2022/08/22 06:48:04;;;;;;;;;;;16.90;99.90;;;;;;5178276;27;19923;-68
2022/08/22 06:50:34;;;;;;;;;;;17.00;99.90;;;;;;5179106;27;20014;-70
2022/08/22 06:53:04;;;;;;;;;;;17.00;99.90;;;;;;5160390;27;19923;-68
2022/08/22 06:55:29;;;;;;;;;;;17.00;99.90;;;;;;5178931;27;20017;-72
2022/08/22 06:57:58;;;;;;;;;;;17.10;99.90;;;;;;5160340;27;19969;-68
2022/08/22 07:00:25;;;;;;;;;;;17.10;99.90;;;;;;5178639;27;19923;-68
2022/08/22 07:02:55;;;;;;;;;;;17.20;99.90;;;;;;5160330;27;19929;-69
2022/08/22 07:05:24;;;;;;;;;;;17.20;99.90;;;;;;5178826;27;19990;-68
2022/08/22 07:07:49;;;;;;;;;;;17.30;99.90;;;;;;5178595;27;20021;-68
2022/08/22 07:10:16;;;;;;;;;;;17.20;99.90;;;;;;5160002;27;20033;-69
2022/08/22 07:12:44;;;;;;;;;;;17.30;99.90;;;;;;5179024;27;19922;-68
2022/08/22 07:15:28;;;;;;;;;;;17.30;99.90;;;;;;5178355;27;20029;-72
2022/08/22 07:17:57;;;;;;;;;;;17.30;99.90;;;;;;5178824;27;19968;-67
2022/08/22 07:20:30;;;;;;;;;;;17.40;99.90;;;;;;5160118;27;19929;-71
2022/08/22 07:22:58;;;;;;;;;;;17.40;99.90;;;;;;5178175;27;20315;-68
2022/08/22 07:25:23;;;;;;;;;;;17.40;99.90;;;;;;5156235;27;19923;-69
2022/08/22 07:27:49;;;;;;;;;;;17.40;99.90;;;;;;5155846;27;20021;-68
2022/08/22 07:30:16;;;;;;;;;;;17.60;99.90;;;;;;5157230;27;19924;-69
2022/08/22 07:32:59;;;;;;;;;;;17.50;99.90;;;;;;5156333;27;20408;-70
2022/08/22 07:35:27;;;;;;;;;;;17.50;99.90;;;;;;5156076;27;20275;-68
2022/08/22 07:38:12;;;;;;;;;;;17.60;99.90;;;;;;5156130;27;19923;-69
2022/08/22 07:40:43;;;;;;;;;;;17.60;99.90;;;;;;5156124;27;19934;-68
2022/08/22 07:43:20;;;;;;;;;;;17.60;99.90;;;;;;5138922;27;19968;-72
2022/08/22 07:45:49;;;;;;;;;;;17.60;99.90;;;;;;5156934;27;20431;-68
2022/08/22 07:48:33;;;;;;;;;;;17.70;99.90;;;;;;5156918;27;19930;-71
2022/08/22 07:51:02;;;;;;;;;;;17.70;99.90;;;;;;5155644;27;19979;-68
2022/08/22 07:53:38;;;;;;;;;;;17.70;99.90;;;;;;5155886;27;20424;-68
2022/08/22 07:56:05;;;;;;;;;;;17.80;99.90;;;;;;5156891;27;19937;-70
2022/08/22 07:58:34;;;;;;;;;;;17.80;99.90;;;;;;5155512;27;19967;-68
2022/08/22 08:01:00;;;;;;;;;;;17.80;99.90;;;;;;5155548;27;19946;-69
2022/08/22 08:03:27;;;;;;;;;;;17.80;99.90;;;;;;5156558;27;19923;-70
2022/08/22 08:05:54;;;;;;;;;;;17.90;99.90;;;;;;5156832;27;19927;-67
2022/08/22 08:08:39;;;;;;;;;;;17.90;99.90;;;;;;5150505;27;19923;-69
2022/08/22 08:11:06;;;;;;;;;;;18.00;99.90;;;;;;5134964;27;19954;-68
2022/08/22 08:13:40;;;;;;;;;;;18.00;99.90;;;;;;5143454;27;19924;-68
2022/08/22 08:16:09;;;;;;;;;;;18.00;99.90;;;;;;5155338;27;19970;-68
2022/08/22 08:18:36;;;;;;;;;;;18.10;99.90;;;;;;5142106;27;19923;-68
2022/08/22 08:21:03;;;;;;;;;;;18.10;99.90;;;;;;5134173;27;19931;-69
2022/08/22 08:23:34;;;;;;;;;;;18.20;99.90;;;;;;5135109;27;19930;-70
2022/08/22 08:26:02;;;;;;;;;;;18.20;99.90;;;;;;5146047;27;19982;-70
2022/08/22 08:28:34;;;;;;;;;;;18.30;99.90;;;;;;5137765;27;19980;-69
2022/08/22 08:31:22;;;;;;;;;;;18.30;99.90;;;;;;5155840;27;19934;-70
2022/08/22 08:33:50;;;;;;;;;;;18.40;99.90;;;;;;5156146;27;20286;-70
2022/08/22 08:36:15;;;;;;;;;;;18.40;99.90;;;;;;5156145;27;20006;-68
2022/08/22 08:38:46;;;;;;;;;;;18.40;99.90;;;;;;5155850;27;19985;-68
2022/08/22 08:41:21;;;;;;;;;;;18.40;99.90;;;;;;5155863;27;19923;-68
2022/08/22 08:43:55;;;;;;;;;;;18.50;99.90;;;;;;5156094;27;20005;-69
2022/08/22 08:46:23;;;;;;;;;;;17.70;99.90;;;;;;5155960;27;20014;-68
2022/08/22 08:49:01;;;;;;;;;;;18.60;99.90;;;;;;5154980;27;20460;-71
2022/08/22 08:51:30;;;;;;;;;;;18.60;99.90;;;;;;5154999;27;19997;-68
2022/08/22 08:54:09;;;;;;;;;;;18.60;99.90;;;;;;5155688;27;19924;-68
2022/08/22 08:56:52;;;;;;;;;;;18.70;99.90;;;;;;5155437;27;19930;-71
2022/08/22 08:59:22;;;;;;;;;;;18.70;99.90;;;;;;5155427;27;19974;-68
2022/08/22 09:02:07;;;;;;;;;;;18.70;99.90;;;;;;5155541;27;20052;-68
2022/08/22 09:04:37;;;;;;;;;;;18.80;99.90;;;;;;5136854;27;20278;-68
2022/08/22 09:07:12;;;;;;;;;;;18.80;99.90;;;;;;5155651;27;19923;-68
2022/08/22 09:09:38;;;;;;;;;;;18.80;99.90;;;;;;5155100;27;19927;-68
2022/08/22 09:12:11;;;;;;;;;;;18.90;99.90;;;;;;5155537;27;20438;-70
2022/08/22 09:14:47;;;;;;;;;;;18.90;99.90;;;;;;5155293;27;19970;-69
2022/08/22 09:17:30;;;;;;;;;;;18.90;99.90;;;;;;5155079;27;20013;-70
2022/08/22 09:20:18;;;;;;;;;;;19.00;99.90;;;;;;5155076;27;19923;-71
2022/08/22 09:22:57;;;;;;;;;;;19.00;99.90;;;;;;5155040;27;19923;-68
2022/08/22 09:25:26;;;;;;;;;;;19.00;99.90;;;;;;5154797;27;20013;-70
2022/08/22 09:28:00;;;;;;;;;;;19.10;99.90;;;;;;5155310;27;19923;-68
2022/08/22 09:30:34;;;;;;;;;;;19.10;99.90;;;;;;5155290;27;20442;-68
2022/08/22 09:33:20;;;;;;;;;;;19.10;99.90;;;;;;5154942;27;19938;-68
2022/08/22 09:35:56;;;;;;;;;;;19.20;99.90;;;;;;5154981;27;19930;-68
2022/08/22 09:38:25;;;;;;;;;;;19.20;99.90;;;;;;5119736;27;20014;-68
2022/08/22 09:40:52;;;;;;;;;;;19.20;99.90;;;;;;5155296;27;19927;-68
2022/08/22 09:43:24;;;;;;;;;;;19.20;99.90;;;;;;5155279;27;19927;-68
2022/08/22 09:46:09;;;;;;;;;;;19.30;99.90;;;;;;5154981;27;19931;-68
2022/08/22 09:48:54;;;;;;;;;;;19.30;99.90;;;;;;5154818;27;19923;-68
2022/08/22 09:51:29;;;;;;;;;;;19.30;99.90;;;;;;5136778;27;20397;-70
2022/08/22 09:54:11;;;;;;;;;;;19.30;99.90;;;;;;5154962;27;20362;-68
2022/08/22 09:56:52;;;;;;;;;;;19.40;99.90;;;;;;5136762;27;19966;-68
2022/08/22 09:59:26;;;;;;;;;;;19.40;99.90;;;;;;5154837;27;19974;-71
2022/08/22 10:01:51;;;;;;;;;;;19.40;99.90;;;;;;5154865;27;19923;-68
2022/08/22 10:04:17;;;;;;;;;;;19.40;99.90;;;;;;5136805;27;19930;-68
2022/08/22 10:06:49;;;;;;;;;;;19.50;99.90;;;;;;5136719;27;19923;-68
2022/08/22 10:09:20;;;;;;;;;;;19.50;99.90;;;;;;5154794;27;19992;-69
2022/08/22 10:11:49;;;;;;;;;;;19.50;99.90;;;;;;5154666;27;20381;-68
2022/08/22 10:14:14;;;;;;;;;;;19.50;99.90;;;;;;5154930;27;19930;-72
2022/08/22 10:16:43;;;;;;;;;;;19.60;99.90;;;;;;5136266;27;19923;-69
2022/08/22 10:19:27;;;;;;;;;;;19.60;99.90;;;;;;5154693;27;19927;-71
2022/08/22 10:22:11;;;;;;;;;;;19.70;99.90;;;;;;5137147;27;20010;-69
2022/08/22 10:24:40;;;;;;;;;;;19.80;99.90;;;;;;5158887;27;19923;-68
2022/08/22 10:27:12;;;;;;;;;;;19.80;99.90;;;;;;5136318;27;19978;-68
2022/08/22 10:29:38;;;;;;;;;;;19.80;99.90;;;;;;5136412;27;20011;-69
2022/08/22 10:32:19;;;;;;;;;;;19.90;99.90;;;;;;5136833;27;19974;-69
2022/08/22 10:34:47;;;;;;;;;;;20.00;99.90;;;;;;5137662;27;19948;-71
2022/08/22 10:37:19;;;;;;;;;;;20.00;99.90;;;;;;5137926;27;19930;-68
2022/08/22 10:39:55;;;;;;;;;;;20.10;99.90;;;;;;5136667;27;19928;-71
2022/08/22 10:42:29;;;;;;;;;;;20.10;99.90;;;;;;5136773;27;19994;-68
2022/08/22 10:45:02;;;;;;;;;;;20.10;99.90;;;;;;5137579;27;19923;-70
2022/08/22 10:47:46;;;;;;;;;;;20.10;99.90;;;;;;5136370;27;19923;-68
2022/08/22 10:50:17;;;;;;;;;;;20.10;99.90;;;;;;5137439;27;19967;-72
2022/08/22 10:53:28;;;;;;;;;;;20.20;99.90;;;;;;5137375;27;19930;-70
2022/08/22 10:55:37;;;;;;;;;;;20.20;99.90;;;;;;5137235;27;20021;-68
2022/08/22 10:58:14;;;;;;;;;;;20.20;99.90;;;;;;5137168;27;20457;-69
2022/08/22 11:00:43;;;;;;;;;;;20.20;99.90;;;;;;5137288;27;19924;-69
2022/08/22 11:03:14;;;;;;;;;;;20.20;99.90;;;;;;5137137;27;19935;-69
2022/08/22 11:05:42;;;;;;;;;;;20.20;99.90;;;;;;5137166;27;19967;-67
2022/08/22 11:08:26;;;;;;;;;;;20.20;99.90;;;;;;5135969;27;19924;-69
2022/08/22 11:10:52;;;;;;;;;;;20.20;99.90;;;;;;5137225;27;19976;-68
2022/08/22 11:13:20;;;;;;;;;;;20.30;99.90;;;;;;5137152;27;19924;-69
2022/08/22 11:16:04;;;;;;;;;;;20.30;99.90;;;;;;5137058;27;19923;-69
2022/08/22 11:18:48;;;;;;;;;;;20.30;99.90;;;;;;5136684;27;20404;-68
2022/08/22 11:21:26;;;;;;;;;;;20.30;99.90;;;;;;5136829;27;19923;-69
2022/08/22 11:23:55;;;;;;;;;;;20.40;99.90;;;;;;5136884;27;19968;-67
2022/08/22 11:26:20;;;;;;;;;;;20.40;99.90;;;;;;5135390;27;19988;-71
2022/08/22 11:29:09;;;;;;;;;;;20.40;99.90;;;;;;5136457;27;20438;-68
2022/08/22 11:31:52;;;;;;;;;;;20.40;99.90;;;;;;5136496;27;19923;-68
2022/08/22 11:34:26;;;;;;;;;;;20.50;99.90;;;;;;5136640;27;19927;-70
2022/08/22 11:37:00;;;;;;;;;;;20.50;99.90;;;;;;5136624;27;20010;-68
2022/08/22 11:39:45;;;;;;;;;;;20.50;99.90;;;;;;5118385;27;19923;-69
2022/08/22 11:42:20;;;;;;;;;;;20.50;99.90;;;;;;5135576;27;19923;-68
2022/08/22 11:44:48;;;;;;;;;;;20.50;99.90;;;;;;5136611;27;19924;-68
2022/08/22 11:47:17;;;;;;;;;;;20.60;99.90;;;;;;5135328;27;19924;-68
2022/08/22 11:49:48;;;;;;;;;;;20.60;99.90;;;;;;5135093;27;19923;-68
2022/08/22 11:52:13;;;;;;;;;;;20.60;99.90;;;;;;5134985;27;19966;-68
2022/08/22 11:54:57;;;;;;;;;;;20.60;99.90;;;;;;5136382;27;19931;-68
2022/08/22 11:57:32;;;;;;;;;;;20.60;99.90;;;;;;5136247;27;19946;-68
2022/08/22 12:00:00;;;;;;;;;;;20.60;99.90;;;;;;5136133;27;19970;-72
2022/08/22 12:02:40;;;;;;;;;;;20.60;99.90;;;;;;5135062;27;19968;-67
2022/08/22 12:05:11;;;;;;;;;;;20.60;99.90;;;;;;5135861;27;19968;-71
2022/08/22 12:07:39;;;;;;;;;;;20.70;99.90;;;;;;5117523;27;19931;-72
2022/08/22 12:10:08;;;;;;;;;;;20.70;99.90;;;;;;5134265;27;19923;-70
2022/08/22 12:12:50;;;;;;;;;;;20.70;99.90;;;;;;5134789;27;19923;-69
2022/08/22 12:15:26;;;;;;;;;;;20.70;99.90;;;;;;5135708;27;19931;-69
2022/08/22 12:18:04;;;;;;;;;;;20.70;99.90;;;;;;5135760;27;19927;-69
2022/08/22 12:20:52;;;;;;;;;;;20.70;99.90;;;;;;5135239;27;20385;-69
2022/08/22 12:23:24;;;;;;;;;;;20.80;99.90;;;;;;5092324;28;19970;-71
2022/08/22 12:25:49;;;;;;;;;;;20.80;99.90;;;;;;5092198;28;19950;-70
2022/08/22 12:28:26;;;;;;;;;;;20.90;99.90;;;;;;5075359;28;19930;-69
2022/08/22 12:31:01;;;;;;;;;;;20.90;99.90;;;;;;5091801;28;20454;-70
2022/08/22 12:33:27;;;;;;;;;;;21.00;99.90;;;;;;5074711;28;19924;-72
2022/08/22 12:36:07;;;;;;;;;;;21.10;99.90;;;;;;5092329;28;19931;-71
2022/08/22 12:38:55;;;;;;;;;;;21.10;99.90;;;;;;5092176;28;19967;-69
2022/08/22 12:41:34;;;;;;;;;;;21.20;99.90;;;;;;5031601;28;19925;-69
2022/08/22 12:44:21;;;;;;;;;;;21.20;99.90;;;;;;5015730;28;19991;-70
2022/08/22 12:46:47;;;;;;;;;;;21.20;99.90;;;;;;5031706;28;19968;-71
2022/08/22 12:49:20;;;;;;;;;;;21.30;99.90;;;;;;5031755;28;19925;-71
2022/08/22 12:52:04;;;;;;;;;;;21.30;99.90;;;;;;4999381;28;19929;-70
2022/08/22 12:54:44;;;;;;;;;;;21.30;99.90;;;;;;5015193;28;19936;-70
2022/08/22 12:57:19;;;;;;;;;;;21.30;99.90;;;;;;5031759;28;20019;-69
2022/08/22 12:59:46;;;;;;;;;;;21.30;99.90;;;;;;5031658;28;19925;-69
2022/08/22 13:02:23;;;;;;;;;;;21.40;99.90;;;;;;5031401;28;20423;-69
2022/08/22 13:05:09;;;;;;;;;;;21.40;99.90;;;;;;5031628;28;20034;-69
2022/08/22 13:07:36;;;;;;;;;;;21.40;99.90;;;;;;5031688;28;19925;-71
2022/08/22 13:10:07;;;;;;;;;;;21.40;99.90;;;;;;5031336;28;20022;-72
2022/08/22 13:12:44;;;;;;;;;;;21.40;99.90;;;;;;5031496;28;19932;-68
2022/08/22 13:15:15;;;;;;;;;;;21.40;99.90;;;;;;5015387;28;19936;-70
2022/08/22 13:17:42;;;;;;;;;;;21.50;99.90;;;;;;5049692;28;20367;-70
2022/08/22 13:20:18;;;;;;;;;;;21.50;99.90;;;;;;5113078;28;19931;-69
2022/08/22 13:22:44;;;;;;;;;;;21.50;99.90;;;;;;5095747;28;20026;-70
2022/08/22 13:25:16;;;;;;;;;;;21.60;99.90;;;;;;5099583;28;20060;-72
2022/08/22 13:27:43;;;;;;;;;;;21.60;99.90;;;;;;5116369;28;19931;-72
2022/08/22 13:30:15;;;;;;;;;;;21.60;99.90;;;;;;5116195;28;19995;-70
2022/08/22 13:32:45;;;;;;;;;;;21.60;99.90;;;;;;5134542;28;20306;-70
2022/08/22 13:35:19;;;;;;;;;;;21.70;99.90;;;;;;5134337;28;20306;-70
2022/08/22 13:37:46;;;;;;;;;;;21.70;99.90;;;;;;5116380;28;19977;-72
2022/08/22 13:40:14;;;;;;;;;;;21.80;99.90;;;;;;5134618;28;19963;-70
2022/08/22 13:42:44;;;;;;;;;;;21.90;99.90;;;;;;5134410;28;19927;-71
2022/08/22 13:45:12;;;;;;;;;;;21.80;99.90;;;;;;5099486;28;19930;-70
2022/08/22 13:47:46;;;;;;;;;;;22.00;99.90;;;;;;5134142;28;19924;-72
2022/08/22 13:50:16;;;;;;;;;;;22.00;99.90;;;;;;5134222;28;19929;-71
2022/08/22 13:52:45;;;;;;;;;;;22.10;99.90;;;;;;5116336;28;19949;-71
2022/08/22 13:55:16;;;;;;;;;;;22.10;99.90;;;;;;5134361;28;19924;-70
2022/08/22 13:57:42;;;;;;;;;;;22.20;99.90;;;;;;5136301;27;20025;-71
2022/08/22 14:00:11;;;;;;;;;;;22.20;99.90;;;;;;5120325;27;19966;-70
2022/08/22 14:02:39;;;;;;;;;;;22.20;99.90;;;;;;5138023;27;20351;-69
2022/08/22 14:05:08;;;;;;;;;;;22.20;99.90;;;;;;5138369;27;19928;-70
2022/08/22 14:07:37;;;;;;;;;;;22.20;99.90;;;;;;5138424;27;19924;-66
2022/08/22 14:10:03;;;;;;;;;;;22.20;99.90;;;;;;5138268;27;20289;-70
2022/08/22 14:12:34;;;;;;;;;;;22.10;99.90;;;;;;5138177;27;19927;-69
2022/08/22 14:15:01;;;;;;;;;;;22.40;99.90;;;;;;5102833;27;19977;-68
2022/08/22 14:17:31;;;;;;;;;;;22.10;99.90;;;;;;5119605;27;19931;-69
2022/08/22 14:20:01;;;;;;;;;;;22.10;99.90;;;;;;5119769;27;19924;-68
2022/08/22 14:22:30;;;;;;;;;;;22.10;99.90;;;;;;5119799;27;19923;-68
2022/08/22 14:24:57;;;;;;;;;;;22.10;99.90;;;;;;5137787;27;19923;-69
2022/08/22 14:27:29;;;;;;;;;;;22.20;99.90;;;;;;5119579;27;20022;-68
2022/08/22 14:30:00;;;;;;;;;;;22.20;99.90;;;;;;5119266;27;19974;-68
2022/08/22 14:32:25;;;;;;;;;;;22.20;99.90;;;;;;5137842;27;20026;-69
2022/08/22 14:35:00;;;;;;;;;;;22.30;99.90;;;;;;5137841;27;19996;-69
2022/08/22 14:37:33;;;;;;;;;;;22.30;99.90;;;;;;5137763;27;20022;-71
2022/08/22 14:40:05;;;;;;;;;;;22.40;99.90;;;;;;5119546;27;20100;-69
2022/08/22 14:42:57;;;;;;;;;;;22.40;99.90;;;;;;5119217;27;19923;-70
2022/08/22 14:45:30;;;;;;;;;;;22.10;99.90;;;;;;5133485;27;19923;-68
2022/08/22 14:47:59;;;;;;;;;;;22.60;99.90;;;;;;5137348;27;20029;-72
2022/08/22 14:50:49;;;;;;;;;;;22.60;99.90;;;;;;5118651;27;19978;-69